METAR Data
IDs: Format: Raw Decoded Include TAF

Data at: 2201 UTC 18 Apr 2021

KOMN 182150Z 12005KT 7SM SCT060 24/19 A2987
KOMN 182050Z 00000KT 7SM SCT060 25/19 A2986
KOMN 181950Z 00000KT 7SM SCT080 25/18 A2987
KOMN 181850Z 00000KT 7SM SCT050 22/19 A2990
KOMN 181750Z 00000KT 7SM BKN050 20/18 A2991
KOMN 181650Z VRB04KT 7SM BKN050 19/18 A2994 RMK RA E25
KOMN 181605Z VRB04KT 5SM -RA SCT012 SCT018 OVC060 18/18 A2998
KOMN 181550Z VRB04KT 1SM +RA OVC006 18/17 A3001
KOMN 181515Z VRB04KT 5SM -RA SCT011 SCT025 18/17 A2998
KOMN 181505Z VRB04KT 3SM -RA BKN008 18/17 A2998 RMK TS E04
KOMN 181450Z 28027G38KT 1SM +TSRA OVC002 20/19 A3000 RMK TS OHD MOV E
KOMN 181435Z VRB03KT 5SM +TSRA BKN021 BKN045 20/19 A2995 RMK TS B34
KOMN 181350Z VRB03KT 7SM VCSH BKN025 BKN047 20/19 A2993
KOMN 181250Z VRB03KT 7SM VCSH BKN048 19/18 A2994
KOMN 181150Z 00000KT 7SM VCSH BKN048 18/18 A2993
KOMN 181050Z 22004KT 7SM VCSH BKN060 18/18 A2991 RMK FIRST
KOMN 172250Z 06004KT 7SM CLR 22/18 A2984 RMK LAST
KOMN 172150Z 06007KT 5SM SCT041 SCT050 BKN065 21/18 A2984
KOMN 172050Z 03008KT 5SM -RA SCT025 BKN030 20/18 A2983
KOMN 171950Z 03007KT 5SM -RA BKN007 BKN023 20/19 A2985
KOMN 171925Z 02008KT 5SM -RA BKN006 BKN022 21/19 A2984
KOMN 171850Z 36008KT 5SM -RA BKN006 BKN022 22/19 A2985 RMK RA B47
KOMN 171820Z 26008KT 7SM BKN006 BKN022 26/20 A2985
KOMN 171750Z 26008KT 7SM SCT012 SCT022 24/21 A2985
KOMN 171650Z 23008KT 5SM BR SCT008 BKN017 24/21 A2987
KOMN 171550Z 23004KT 5SM BR BKN008 BKN014 22/21 A2990
KOMN 171520Z 00000KT 5SM BR SCT005 BKN030 20/20 A2988
KOMN 171450Z 00000KT 2SM RABR BKN007 OVC060 19/19 A2990
KOMN 171350Z 00000KT 5SM BR BKN013 BKN060 OVC 085 19/18 A2991
KOMN 171250Z 00000KT 4SM RASH BR SC T004 BKN009 OVC 015 18/18 A2990
KOMN 171150Z 00000KT 4SM -RA BR SC T001 BKN008 OVC 011 19/19 A2986
KOMN 171050Z 00000KT 4SM -RA BR BKN001 BKN007 OVC011 19/19 A2984 RMK FIRST